Tropical Cyclones
[Index]
Main Index Home Page Stock Weather Photos Extreme Storms Discussion Storm News and Storm Chasing Reports Tropical Cyclones / Hurricanes / Typhoons Weather Data and Links Wild Fires / Bushfires Weather Observation Techniques Weather Picture Catalogue Tornado Pictures and Reports Stock Video Footage and DVDs for sale
Season 2003-2004 Tropical Cyclone EVAN Track Map
Season 2003-2004 Summaries: [BoM-AU] [JTWC-AU] [JTWC-SIO] [JTWC-SPAC] [JTWC-SH]
<<- Previous TC | BoM 2003-2004 Season | Next TC ->>

click for intensity scale information  Lat/long Grid: Show Hide

 Date Labels: Show Hide

Bureau of Meteorology Tropical Cyclone Data

Name: EVAN
Number: 875 / 200304_06

27 Feb 2004 00:00 UTC to 04 Mar 2004 00:00 UTC

    date/time    lat    long    hPa   cat  kts
2004-02-27 00   12.8   141.5   1006         15          
2004-02-27 06   12.7   141.2   1005         15          
2004-02-27 12   12.8   140.7   1005         15          
2004-02-27 18   13.0   140.5   1004         15          
2004-02-28 00   13.2   140.4   1005         15          
2004-02-28 06   13.4   140.3   1003         20          
2004-02-28 12   13.6   140.2   1005         20          
2004-02-28 18   13.7   140.1   1003         25          
2004-02-28 21   13.7   140.0   1003         25          
2004-02-29 00   13.7   139.9   1004         25          
2004-02-29 03   13.7   139.8   1004         25          
2004-02-29 06   13.6   139.7   1002         25          
2004-02-29 12   13.5   139.5   1003         25          
2004-02-29 15   13.4   139.4   1002         25          
2004-02-29 18   13.4   139.1    999         25          
2004-02-29 21   13.5   138.7    999         25          
2004-03-01 00   13.5   138.3    999         25          
2004-03-01 03   13.6   137.8    997         30          
2004-03-01 06   13.7   137.3    994    1    30          
2004-03-01 08   13.8   137.0    991    1    35          
2004-03-01 09   13.8   136.8    991    1    35          
2004-03-01 12   14.0   136.5    995    1    25          
2004-03-01 15   14.0   136.0    995    1    25          
2004-03-01 18   14.1   135.6    996         20          
2004-03-01 21   14.2   135.2    997         20          
2004-03-02 00   14.2   134.9    998         20          
2004-03-02 03   14.2   134.7    998         15          
2004-03-02 06   14.2   134.3    998         15          
2004-03-02 09   14.3   133.5    998         15          
2004-03-02 12   14.4   133.0   1000         15          
2004-03-02 15   14.6   131.8   1000         15          
2004-03-02 18   14.5   131.3    999         15          
2004-03-02 21   14.3   130.8   1000         15          
2004-03-03 00   14.3   130.0   1000         15          
2004-03-03 03   14.3   129.5    999         15          
2004-03-03 06   14.4   129.2    999         15          
2004-03-03 12   14.6   127.8    999         15          
2004-03-03 18   14.8   126.8   1001         15          
2004-03-04 00   15.0   126.1   1001         15          
Winds are 10-min average.

Tropical cyclone tracks developed by Michael Bath using data from the Bureau of Meteorology and Google Maps.


[Australian Severe Weather index] [Copyright Notice] [Email Contacts] [Search This Site] [Privacy Policy]
Document: tropical_cyclone_evan.htm Updated: 29 June 2017